sensor_id;sensor_type;location;lat;lon;timestamp;pressure;altitude;pressure_sealevel;temperature;humidity
18527;BME280;9393;42.158;24.748;2023-04-16T00:03:03;99070.09;;;15.76;51.45
18527;BME280;9393;42.158;24.748;2023-04-16T00:06:09;99074.41;;;15.84;51.21
18527;BME280;9393;42.158;24.748;2023-04-16T00:09:13;99070.94;;;15.62;51.79
18527;BME280;9393;42.158;24.748;2023-04-16T00:12:16;99065.72;;;15.83;51.33
18527;BME280;9393;42.158;24.748;2023-04-16T00:15:20;99070.84;;;15.91;51.19
18527;BME280;9393;42.158;24.748;2023-04-16T00:18:25;99065.91;;;15.82;51.37
18527;BME280;9393;42.158;24.748;2023-04-16T00:21:28;99061.34;;;15.90;51.45
18527;BME280;9393;42.158;24.748;2023-04-16T00:24:32;99071.09;;;15.96;51.28
18527;BME280;9393;42.158;24.748;2023-04-16T00:27:35;99074.59;;;16.03;51.08
18527;BME280;9393;42.158;24.748;2023-04-16T00:30:39;99078.88;;;16.04;51.05
18527;BME280;9393;42.158;24.748;2023-04-16T00:33:44;99074.47;;;15.90;51.40
18527;BME280;9393;42.158;24.748;2023-04-16T00:36:47;99087.84;;;16.10;51.01
18527;BME280;9393;42.158;24.748;2023-04-16T00:39:51;99092.78;;;15.98;51.46
18527;BME280;9393;42.158;24.748;2023-04-16T00:42:54;99087.75;;;16.25;50.66
18527;BME280;9393;42.158;24.748;2023-04-16T00:45:58;99090.78;;;16.00;51.00
18527;BME280;9393;42.158;24.748;2023-04-16T00:49:03;99104.19;;;16.05;51.15
18527;BME280;9393;42.158;24.748;2023-04-16T00:52:07;99092.44;;;15.87;51.48
18527;BME280;9393;42.158;24.748;2023-04-16T00:55:11;99100.13;;;16.03;51.17
18527;BME280;9393;42.158;24.748;2023-04-16T00:58:15;99087.91;;;15.95;51.54
18527;BME280;9393;42.158;24.748;2023-04-16T01:01:18;99085.94;;;16.04;51.28
18527;BME280;9393;42.158;24.748;2023-04-16T01:04:24;99089.44;;;15.90;51.76
18527;BME280;9393;42.158;24.748;2023-04-16T01:07:28;99076.38;;;15.75;52.14
18527;BME280;9393;42.158;24.748;2023-04-16T01:10:31;99081.88;;;15.80;51.98
18527;BME280;9393;42.158;24.748;2023-04-16T01:13:35;99084.50;;;15.80;52.12
18527;BME280;9393;42.158;24.748;2023-04-16T01:16:40;99084.03;;;16.12;51.14
18527;BME280;9393;42.158;24.748;2023-04-16T01:19:46;99084.13;;;16.26;51.13
18527;BME280;9393;42.158;24.748;2023-04-16T01:22:51;99091.75;;;16.42;50.72
18527;BME280;9393;42.158;24.748;2023-04-16T01:25:54;99088.13;;;16.43;50.64
18527;BME280;9393;42.158;24.748;2023-04-16T01:28:58;99097.56;;;16.31;51.20
18527;BME280;9393;42.158;24.748;2023-04-16T01:32:02;99088.53;;;16.18;51.56
18527;BME280;9393;42.158;24.748;2023-04-16T01:35:08;99088.63;;;16.10;51.86
18527;BME280;9393;42.158;24.748;2023-04-16T01:38:13;99091.28;;;16.10;51.92
18527;BME280;9393;42.158;24.748;2023-04-16T01:41:17;99089.34;;;15.98;52.35
18527;BME280;9393;42.158;24.748;2023-04-16T01:44:21;99073.44;;;15.85;52.74
18527;BME280;9393;42.158;24.748;2023-04-16T01:47:25;99078.44;;;16.01;52.53
18527;BME280;9393;42.158;24.748;2023-04-16T01:50:29;99088.72;;;15.96;52.89
18527;BME280;9393;42.158;24.748;2023-04-16T01:53:34;99087.63;;;15.90;53.08
18527;BME280;9393;42.158;24.748;2023-04-16T01:56:38;99076.13;;;15.91;53.06
18527;BME280;9393;42.158;24.748;2023-04-16T01:59:42;99075.91;;;15.93;52.92
18527;BME280;9393;42.158;24.748;2023-04-16T02:02:46;99065.97;;;15.88;52.97
18527;BME280;9393;42.158;24.748;2023-04-16T02:05:59;99062.47;;;15.81;53.04
18527;BME280;9393;42.158;24.748;2023-04-16T02:09:04;99069.81;;;15.86;53.06
18527;BME280;9393;42.158;24.748;2023-04-16T02:12:10;99075.31;;;15.91;52.76
18527;BME280;9393;42.158;24.748;2023-04-16T02:15:14;99070.91;;;15.77;52.78
18527;BME280;9393;42.158;24.748;2023-04-16T02:18:19;99071.69;;;15.92;52.40
18527;BME280;9393;42.158;24.748;2023-04-16T02:21:23;99068.19;;;15.70;53.06
18527;BME280;9393;42.158;24.748;2023-04-16T02:24:28;99073.53;;;15.77;52.89
18527;BME280;9393;42.158;24.748;2023-04-16T02:27:34;99076.84;;;15.64;53.31
18527;BME280;9393;42.158;24.748;2023-04-16T02:30:52;99076.72;;;15.72;52.94
18527;BME280;9393;42.158;24.748;2023-04-16T02:33:56;99077.72;;;15.71;52.81
18527;BME280;9393;42.158;24.748;2023-04-16T02:37:00;99073.41;;;15.63;52.91
18527;BME280;9393;42.158;24.748;2023-04-16T02:40:06;99083.47;;;15.60;53.10
18527;BME280;9393;42.158;24.748;2023-04-16T02:43:10;99088.38;;;15.48;53.50
18527;BME280;9393;42.158;24.748;2023-04-16T02:46:13;99082.66;;;15.30;54.47
18527;BME280;9393;42.158;24.748;2023-04-16T02:49:17;99085.09;;;15.17;55.35
18527;BME280;9393;42.158;24.748;2023-04-16T02:52:22;99082.75;;;14.78;56.52
18527;BME280;9393;42.158;24.748;2023-04-16T02:55:27;99094.34;;;14.98;56.03
18527;BME280;9393;42.158;24.748;2023-04-16T02:58:31;99081.84;;;15.00;56.01
18527;BME280;9393;42.158;24.748;2023-04-16T03:01:34;99092.59;;;14.61;57.24
18527;BME280;9393;42.158;24.748;2023-04-16T03:04:38;99089.75;;;14.86;56.46
18527;BME280;9393;42.158;24.748;2023-04-16T03:07:42;99092.59;;;14.76;56.55
18527;BME280;9393;42.158;24.748;2023-04-16T03:10:47;99086.91;;;14.87;56.36
18527;BME280;9393;42.158;24.748;2023-04-16T03:13:50;99093.53;;;14.98;56.00
18527;BME280;9393;42.158;24.748;2023-04-16T03:16:54;99093.44;;;14.91;56.27
18527;BME280;9393;42.158;24.748;2023-04-16T03:19:58;99093.16;;;15.01;56.02
18527;BME280;9393;42.158;24.748;2023-04-16T03:23:02;99085.03;;;14.96;56.00
18527;BME280;9393;42.158;24.748;2023-04-16T03:26:07;99086.19;;;14.93;56.11
18527;BME280;9393;42.158;24.748;2023-04-16T03:29:10;99091.72;;;14.84;56.19
18527;BME280;9393;42.158;24.748;2023-04-16T03:32:14;99099.25;;;15.01;55.76
18527;BME280;9393;42.158;24.748;2023-04-16T03:35:18;99103.06;;;14.99;56.08
18527;BME280;9393;42.158;24.748;2023-04-16T03:38:23;99103.66;;;15.01;55.95
18527;BME280;9393;42.158;24.748;2023-04-16T03:41:30;99103.50;;;14.88;56.50
18527;BME280;9393;42.158;24.748;2023-04-16T03:44:34;99112.91;;;14.82;56.69
18527;BME280;9393;42.158;24.748;2023-04-16T03:47:38;99110.47;;;14.95;56.18
18527;BME280;9393;42.158;24.748;2023-04-16T03:50:44;99118.59;;;14.26;58.97
18527;BME280;9393;42.158;24.748;2023-04-16T03:53:51;99114.94;;;14.35;59.15
18527;BME280;9393;42.158;24.748;2023-04-16T03:56:57;99116.53;;;14.44;59.05
18527;BME280;9393;42.158;24.748;2023-04-16T04:00:00;99127.69;;;14.38;59.37
18527;BME280;9393;42.158;24.748;2023-04-16T04:03:14;99129.09;;;14.48;59.21
18527;BME280;9393;42.158;24.748;2023-04-16T04:06:22;99120.75;;;14.45;59.42
18527;BME280;9393;42.158;24.748;2023-04-16T04:09:25;99127.69;;;14.60;59.07
18527;BME280;9393;42.158;24.748;2023-04-16T04:12:31;99129.25;;;14.70;58.76
18527;BME280;9393;42.158;24.748;2023-04-16T04:15:35;99130.63;;;14.80;58.64
18527;BME280;9393;42.158;24.748;2023-04-16T04:18:39;99133.53;;;15.00;58.08
18527;BME280;9393;42.158;24.748;2023-04-16T04:21:45;99132.75;;;14.99;58.10
18527;BME280;9393;42.158;24.748;2023-04-16T04:24:51;99133.31;;;15.09;57.76
18527;BME280;9393;42.158;24.748;2023-04-16T04:27:56;99129.38;;;14.91;58.60
18527;BME280;9393;42.158;24.748;2023-04-16T04:31:00;99137.00;;;14.86;58.70
18527;BME280;9393;42.158;24.748;2023-04-16T04:34:05;99139.78;;;14.84;58.80
18527;BME280;9393;42.158;24.748;2023-04-16T04:37:08;99135.91;;;14.95;58.69
18527;BME280;9393;42.158;24.748;2023-04-16T04:40:12;99135.19;;;15.01;58.30
18527;BME280;9393;42.158;24.748;2023-04-16T04:43:18;99125.22;;;15.11;58.00
18527;BME280;9393;42.158;24.748;2023-04-16T04:46:24;99129.56;;;15.04;58.19
18527;BME280;9393;42.158;24.748;2023-04-16T04:49:27;99126.03;;;14.82;58.63
18527;BME280;9393;42.158;24.748;2023-04-16T04:52:31;99127.50;;;14.99;58.10
18527;BME280;9393;42.158;24.748;2023-04-16T04:55:36;99134.75;;;15.12;57.68
18527;BME280;9393;42.158;24.748;2023-04-16T04:58:42;99124.88;;;15.29;57.22
18527;BME280;9393;42.158;24.748;2023-04-16T05:01:46;99119.81;;;15.27;57.19
18527;BME280;9393;42.158;24.748;2023-04-16T05:04:49;99127.97;;;15.03;58.19
18527;BME280;9393;42.158;24.748;2023-04-16T05:07:53;99133.09;;;14.96;58.40
18527;BME280;9393;42.158;24.748;2023-04-16T05:10:56;99142.06;;;15.31;57.35
18527;BME280;9393;42.158;24.748;2023-04-16T05:14:02;99144.34;;;15.34;57.23
18527;BME280;9393;42.158;24.748;2023-04-16T05:17:05;99137.59;;;15.54;56.83
18527;BME280;9393;42.158;24.748;2023-04-16T05:20:11;99140.16;;;15.69;56.73
18527;BME280;9393;42.158;24.748;2023-04-16T05:23:15;99136.19;;;15.73;56.88
18527;BME280;9393;42.158;24.748;2023-04-16T05:26:19;99146.16;;;15.63;57.83
18527;BME280;9393;42.158;24.748;2023-04-16T05:29:25;99145.81;;;16.02;56.77
18527;BME280;9393;42.158;24.748;2023-04-16T05:32:29;99148.88;;;16.20;55.90
18527;BME280;9393;42.158;24.748;2023-04-16T05:35:33;99151.72;;;15.68;56.07
18527;BME280;9393;42.158;24.748;2023-04-16T05:38:36;99150.25;;;16.01;56.21
18527;BME280;9393;42.158;24.748;2023-04-16T05:41:40;99160.75;;;15.22;58.08
18527;BME280;9393;42.158;24.748;2023-04-16T05:44:45;99159.91;;;15.94;56.65
18527;BME280;9393;42.158;24.748;2023-04-16T05:47:49;99167.63;;;15.81;56.98
18527;BME280;9393;42.158;24.748;2023-04-16T05:50:52;99159.06;;;16.51;54.80
18527;BME280;9393;42.158;24.748;2023-04-16T05:53:56;99154.16;;;17.18;53.03
18527;BME280;9393;42.158;24.748;2023-04-16T05:56:59;99153.66;;;17.70;51.83
18527;BME280;9393;42.158;24.748;2023-04-16T06:00:06;99151.59;;;18.33;49.84
18527;BME280;9393;42.158;24.748;2023-04-16T06:03:13;99147.19;;;18.66;49.45
18527;BME280;9393;42.158;24.748;2023-04-16T06:06:17;99155.88;;;19.26;47.53
18527;BME280;9393;42.158;24.748;2023-04-16T06:09:20;99157.13;;;19.23;47.77
18527;BME280;9393;42.158;24.748;2023-04-16T06:12:24;99150.75;;;19.57;46.86
18527;BME280;9393;42.158;24.748;2023-04-16T06:15:29;99151.63;;;19.95;45.97
18527;BME280;9393;42.158;24.748;2023-04-16T06:18:33;99143.97;;;19.74;46.03
18527;BME280;9393;42.158;24.748;2023-04-16T06:21:37;99137.41;;;19.83;46.10
18527;BME280;9393;42.158;24.748;2023-04-16T06:24:41;99138.78;;;19.35;46.35
18527;BME280;9393;42.158;24.748;2023-04-16T06:27:44;99145.75;;;18.96;47.23
18527;BME280;9393;42.158;24.748;2023-04-16T06:30:49;99133.59;;;18.82;47.64
18527;BME280;9393;42.158;24.748;2023-04-16T06:33:53;99127.09;;;18.85;48.08
18527;BME280;9393;42.158;24.748;2023-04-16T06:36:57;99138.19;;;19.26;47.40
18527;BME280;9393;42.158;24.748;2023-04-16T06:40:00;99131.78;;;19.66;46.49
18527;BME280;9393;42.158;24.748;2023-04-16T06:43:04;99125.53;;;19.99;45.75
18527;BME280;9393;42.158;24.748;2023-04-16T06:46:10;99130.00;;;19.98;45.53
18527;BME280;9393;42.158;24.748;2023-04-16T06:49:13;99132.47;;;20.31;45.03
18527;BME280;9393;42.158;24.748;2023-04-16T06:52:17;99143.75;;;20.13;45.03
18527;BME280;9393;42.158;24.748;2023-04-16T06:55:20;99141.31;;;20.50;45.08
18527;BME280;9393;42.158;24.748;2023-04-16T06:58:24;99142.47;;;19.91;45.62
18527;BME280;9393;42.158;24.748;2023-04-16T07:01:30;99139.88;;;20.54;44.62
18527;BME280;9393;42.158;24.748;2023-04-16T07:04:33;99144.00;;;20.93;44.47
18527;BME280;9393;42.158;24.748;2023-04-16T07:07:37;99143.44;;;21.15;44.04
18527;BME280;9393;42.158;24.748;2023-04-16T07:10:41;99136.22;;;20.98;43.67
18527;BME280;9393;42.158;24.748;2023-04-16T07:13:44;99138.03;;;20.79;44.34
18527;BME280;9393;42.158;24.748;2023-04-16T07:16:50;99141.59;;;21.16;44.11
18527;BME280;9393;42.158;24.748;2023-04-16T07:19:54;99137.56;;;21.32;43.76
18527;BME280;9393;42.158;24.748;2023-04-16T07:22:57;99144.72;;;21.49;42.58
18527;BME280;9393;42.158;24.748;2023-04-16T07:26:01;99132.97;;;21.21;42.29
18527;BME280;9393;42.158;24.748;2023-04-16T07:29:05;99131.81;;;20.92;43.77
18527;BME280;9393;42.158;24.748;2023-04-16T07:32:11;99126.78;;;21.45;43.29
18527;BME280;9393;42.158;24.748;2023-04-16T07:35:16;99129.03;;;22.26;41.75
18527;BME280;9393;42.158;24.748;2023-04-16T07:38:20;99134.31;;;22.14;41.22
18527;BME280;9393;42.158;24.748;2023-04-16T07:41:24;99125.59;;;21.77;42.29
18527;BME280;9393;42.158;24.748;2023-04-16T07:44:28;99122.38;;;21.39;42.71
18527;BME280;9393;42.158;24.748;2023-04-16T07:47:34;99118.22;;;21.79;42.20
18527;BME280;9393;42.158;24.748;2023-04-16T07:50:37;99115.72;;;21.84;42.20
18527;BME280;9393;42.158;24.748;2023-04-16T07:53:42;99120.41;;;22.00;41.78
18527;BME280;9393;42.158;24.748;2023-04-16T07:56:46;99112.22;;;22.02;41.30
18527;BME280;9393;42.158;24.748;2023-04-16T07:59:50;99112.84;;;21.86;41.76
18527;BME280;9393;42.158;24.748;2023-04-16T08:02:55;99110.25;;;21.79;42.32
18527;BME280;9393;42.158;24.748;2023-04-16T08:05:59;99106.16;;;21.65;42.77
18527;BME280;9393;42.158;24.748;2023-04-16T08:09:03;99107.66;;;21.00;44.37
18527;BME280;9393;42.158;24.748;2023-04-16T08:12:06;99107.94;;;21.17;43.94
18527;BME280;9393;42.158;24.748;2023-04-16T08:15:10;99105.38;;;19.98;46.77
18527;BME280;9393;42.158;24.748;2023-04-16T08:18:16;99108.38;;;20.08;45.57
18527;BME280;9393;42.158;24.748;2023-04-16T08:21:19;99109.47;;;19.94;45.58
18527;BME280;9393;42.158;24.748;2023-04-16T08:24:24;99108.09;;;19.85;46.28
18527;BME280;9393;42.158;24.748;2023-04-16T08:27:27;99113.78;;;19.88;46.77
18527;BME280;9393;42.158;24.748;2023-04-16T08:30:31;99117.91;;;20.15;46.43
18527;BME280;9393;42.158;24.748;2023-04-16T08:33:37;99107.03;;;20.30;46.51
18527;BME280;9393;42.158;24.748;2023-04-16T08:36:42;99115.53;;;20.39;46.19
18527;BME280;9393;42.158;24.748;2023-04-16T08:39:47;99116.53;;;20.06;47.29
18527;BME280;9393;42.158;24.748;2023-04-16T08:42:52;99102.97;;;20.28;47.20
18527;BME280;9393;42.158;24.748;2023-04-16T08:45:57;99107.00;;;20.37;46.69
18527;BME280;9393;42.158;24.748;2023-04-16T08:49:05;99101.91;;;20.60;45.86
18527;BME280;9393;42.158;24.748;2023-04-16T08:52:13;99092.81;;;20.74;45.88
18527;BME280;9393;42.158;24.748;2023-04-16T08:55:18;99098.31;;;20.54;47.24
18527;BME280;9393;42.158;24.748;2023-04-16T08:58:28;99087.81;;;21.09;46.13
18527;BME280;9393;42.158;24.748;2023-04-16T09:01:36;99088.25;;;21.60;44.48
18527;BME280;9393;42.158;24.748;2023-04-16T09:04:44;99086.16;;;21.62;44.18
18527;BME280;9393;42.158;24.748;2023-04-16T09:07:49;99082.88;;;22.27;42.53
18527;BME280;9393;42.158;24.748;2023-04-16T09:10:55;99080.88;;;22.22;42.56
18527;BME280;9393;42.158;24.748;2023-04-16T09:13:59;99070.75;;;22.42;42.12
18527;BME280;9393;42.158;24.748;2023-04-16T09:17:03;99060.41;;;22.99;41.27
18527;BME280;9393;42.158;24.748;2023-04-16T09:20:11;99055.25;;;23.21;40.46
18527;BME280;9393;42.158;24.748;2023-04-16T09:23:15;99048.50;;;22.78;40.24
18527;BME280;9393;42.158;24.748;2023-04-16T09:26:19;99040.88;;;22.82;39.79
18527;BME280;9393;42.158;24.748;2023-04-16T09:29:33;99041.25;;;23.25;39.08
18527;BME280;9393;42.158;24.748;2023-04-16T09:32:38;99040.31;;;23.43;38.22
18527;BME280;9393;42.158;24.748;2023-04-16T09:35:47;99039.81;;;23.57;37.49
18527;BME280;9393;42.158;24.748;2023-04-16T09:38:52;99041.56;;;23.40;38.09
18527;BME280;9393;42.158;24.748;2023-04-16T09:41:58;99034.03;;;22.51;38.00
18527;BME280;9393;42.158;24.748;2023-04-16T09:45:03;99034.50;;;23.46;37.75
18527;BME280;9393;42.158;24.748;2023-04-16T09:48:07;99034.69;;;23.56;37.53
18527;BME280;9393;42.158;24.748;2023-04-16T09:51:12;99038.34;;;24.11;36.42
18527;BME280;9393;42.158;24.748;2023-04-16T09:54:16;99040.28;;;22.91;38.42
18527;BME280;9393;42.158;24.748;2023-04-16T09:57:23;99032.75;;;22.42;39.66
18527;BME280;9393;42.158;24.748;2023-04-16T10:00:28;99019.38;;;21.65;40.45
18527;BME280;9393;42.158;24.748;2023-04-16T10:03:33;99028.44;;;22.17;39.96
18527;BME280;9393;42.158;24.748;2023-04-16T10:06:39;99028.44;;;23.22;38.45
18527;BME280;9393;42.158;24.748;2023-04-16T10:09:43;99018.88;;;22.86;37.61
18527;BME280;9393;42.158;24.748;2023-04-16T10:12:47;99029.03;;;22.20;39.15
18527;BME280;9393;42.158;24.748;2023-04-16T10:15:51;99034.44;;;21.83;40.24
18527;BME280;9393;42.158;24.748;2023-04-16T10:18:55;99017.03;;;22.52;38.91
18527;BME280;9393;42.158;24.748;2023-04-16T10:22:01;99019.00;;;22.80;38.17
18527;BME280;9393;42.158;24.748;2023-04-16T10:25:06;99024.00;;;22.00;39.21
18527;BME280;9393;42.158;24.748;2023-04-16T10:28:10;99020.47;;;21.46;40.95
18527;BME280;9393;42.158;24.748;2023-04-16T10:31:16;99020.94;;;22.38;39.42
18527;BME280;9393;42.158;24.748;2023-04-16T10:34:20;99010.25;;;22.68;39.41
18527;BME280;9393;42.158;24.748;2023-04-16T10:37:29;99013.00;;;22.73;39.68
18527;BME280;9393;42.158;24.748;2023-04-16T10:40:34;99008.44;;;23.20;38.54
18527;BME280;9393;42.158;24.748;2023-04-16T10:43:39;99007.28;;;23.15;38.98
18527;BME280;9393;42.158;24.748;2023-04-16T10:46:45;99004.63;;;23.04;39.43
18527;BME280;9393;42.158;24.748;2023-04-16T10:49:50;99005.56;;;23.49;38.52
18527;BME280;9393;42.158;24.748;2023-04-16T10:53:21;99016.13;;;23.44;38.89
18527;BME280;9393;42.158;24.748;2023-04-16T10:56:25;99009.03;;;24.23;37.88
18527;BME280;9393;42.158;24.748;2023-04-16T10:59:30;99009.28;;;24.10;37.71
18527;BME280;9393;42.158;24.748;2023-04-16T11:02:34;99000.56;;;23.53;38.94
18527;BME280;9393;42.158;24.748;2023-04-16T11:05:44;99002.03;;;23.44;39.21
18527;BME280;9393;42.158;24.748;2023-04-16T11:08:51;99001.97;;;23.15;40.71
18527;BME280;9393;42.158;24.748;2023-04-16T11:11:56;98999.28;;;23.27;40.68
18527;BME280;9393;42.158;24.748;2023-04-16T11:15:02;99001.69;;;23.85;39.68
18527;BME280;9393;42.158;24.748;2023-04-16T11:18:06;98995.88;;;23.43;41.15
18527;BME280;9393;42.158;24.748;2023-04-16T11:21:11;98988.63;;;23.84;40.41
18527;BME280;9393;42.158;24.748;2023-04-16T11:24:16;98977.16;;;23.83;41.06
18527;BME280;9393;42.158;24.748;2023-04-16T11:27:20;98976.16;;;23.16;43.21
18527;BME280;9393;42.158;24.748;2023-04-16T11:30:28;98969.78;;;22.54;45.39
18527;BME280;9393;42.158;24.748;2023-04-16T11:33:32;98961.72;;;22.26;46.39
18527;BME280;9393;42.158;24.748;2023-04-16T11:36:42;98958.69;;;21.99;47.58
18527;BME280;9393;42.158;24.748;2023-04-16T11:39:51;98949.78;;;21.93;48.55
18527;BME280;9393;42.158;24.748;2023-04-16T11:42:55;98939.41;;;22.03;48.29
18527;BME280;9393;42.158;24.748;2023-04-16T11:46:05;98927.19;;;22.02;48.84
18527;BME280;9393;42.158;24.748;2023-04-16T11:49:27;98925.25;;;21.68;50.46
18527;BME280;9393;42.158;24.748;2023-04-16T11:52:32;98924.91;;;21.76;51.80
18527;BME280;9393;42.158;24.748;2023-04-16T11:55:43;98916.81;;;21.59;50.42
18527;BME280;9393;42.158;24.748;2023-04-16T11:59:04;98916.00;;;21.59;50.60
18527;BME280;9393;42.158;24.748;2023-04-16T12:02:09;98908.06;;;21.71;50.06
18527;BME280;9393;42.158;24.748;2023-04-16T12:05:29;98913.34;;;21.47;50.66
18527;BME280;9393;42.158;24.748;2023-04-16T12:08:33;98898.84;;;21.20;49.85
18527;BME280;9393;42.158;24.748;2023-04-16T12:11:38;98911.44;;;21.06;49.77
18527;BME280;9393;42.158;24.748;2023-04-16T12:14:49;98909.44;;;21.02;50.27
18527;BME280;9393;42.158;24.748;2023-04-16T12:18:05;98906.44;;;20.80;51.73
18527;BME280;9393;42.158;24.748;2023-04-16T12:21:09;98907.34;;;20.56;53.38
18527;BME280;9393;42.158;24.748;2023-04-16T12:24:14;98908.13;;;19.95;55.92
18527;BME280;9393;42.158;24.748;2023-04-16T12:27:19;98902.38;;;19.49;59.51
18527;BME280;9393;42.158;24.748;2023-04-16T12:30:25;98901.50;;;18.79;63.94
18527;BME280;9393;42.158;24.748;2023-04-16T12:33:29;98902.59;;;18.65;65.13
18527;BME280;9393;42.158;24.748;2023-04-16T12:36:33;98897.88;;;18.80;63.76
18527;BME280;9393;42.158;24.748;2023-04-16T12:39:36;98882.50;;;18.64;65.74
18527;BME280;9393;42.158;24.748;2023-04-16T12:42:42;98874.03;;;18.36;67.44
18527;BME280;9393;42.158;24.748;2023-04-16T12:45:45;98861.41;;;18.38;68.91
18527;BME280;9393;42.158;24.748;2023-04-16T12:48:50;98856.56;;;18.35;70.06
18527;BME280;9393;42.158;24.748;2023-04-16T12:51:54;98842.47;;;18.67;65.88
18527;BME280;9393;42.158;24.748;2023-04-16T12:54:57;98843.66;;;18.71;66.52
18527;BME280;9393;42.158;24.748;2023-04-16T12:58:03;98846.72;;;19.06;63.48
18527;BME280;9393;42.158;24.748;2023-04-16T13:01:07;98854.72;;;19.24;61.17
18527;BME280;9393;42.158;24.748;2023-04-16T13:04:10;98858.75;;;19.02;53.77
18527;BME280;9393;42.158;24.748;2023-04-16T13:07:14;98861.63;;;18.94;51.19
18527;BME280;9393;42.158;24.748;2023-04-16T13:10:20;98858.84;;;19.13;46.69
18527;BME280;9393;42.158;24.748;2023-04-16T13:13:26;98849.56;;;19.36;46.54
18527;BME280;9393;42.158;24.748;2023-04-16T13:16:29;98849.31;;;19.93;49.74
18527;BME280;9393;42.158;24.748;2023-04-16T13:19:33;98851.41;;;20.09;48.58
18527;BME280;9393;42.158;24.748;2023-04-16T13:22:37;98857.16;;;20.06;52.56
18527;BME280;9393;42.158;24.748;2023-04-16T13:25:41;98850.13;;;19.94;50.72
18527;BME280;9393;42.158;24.748;2023-04-16T13:28:46;98850.72;;;20.14;53.03
18527;BME280;9393;42.158;24.748;2023-04-16T13:31:51;98844.38;;;20.40;53.06
18527;BME280;9393;42.158;24.748;2023-04-16T13:34:55;98844.38;;;20.58;53.62
18527;BME280;9393;42.158;24.748;2023-04-16T13:37:59;98842.19;;;20.37;52.51
18527;BME280;9393;42.158;24.748;2023-04-16T13:41:02;98843.94;;;20.61;53.35
18527;BME280;9393;42.158;24.748;2023-04-16T13:44:08;98840.19;;;20.32;57.07
18527;BME280;9393;42.158;24.748;2023-04-16T13:47:12;98846.28;;;20.33;60.06
18527;BME280;9393;42.158;24.748;2023-04-16T13:50:16;98846.88;;;20.35;58.39
18527;BME280;9393;42.158;24.748;2023-04-16T13:53:19;98843.78;;;20.38;59.33
18527;BME280;9393;42.158;24.748;2023-04-16T13:56:23;98837.78;;;19.88;60.31
18527;BME280;9393;42.158;24.748;2023-04-16T13:59:29;98842.47;;;20.47;58.43
18527;BME280;9393;42.158;24.748;2023-04-16T14:02:32;98842.31;;;20.60;58.27
18527;BME280;9393;42.158;24.748;2023-04-16T14:05:37;98840.63;;;20.95;57.48
18527;BME280;9393;42.158;24.748;2023-04-16T14:08:40;98835.50;;;21.12;57.04
18527;BME280;9393;42.158;24.748;2023-04-16T14:11:44;98829.50;;;21.58;55.40
18527;BME280;9393;42.158;24.748;2023-04-16T14:14:49;98827.88;;;22.03;54.72
18527;BME280;9393;42.158;24.748;2023-04-16T14:17:53;98817.47;;;22.37;55.12
18527;BME280;9393;42.158;24.748;2023-04-16T14:20:57;98814.66;;;22.83;53.68
18527;BME280;9393;42.158;24.748;2023-04-16T14:24:03;98811.13;;;22.94;54.29
18527;BME280;9393;42.158;24.748;2023-04-16T14:27:08;98799.31;;;23.19;53.64
18527;BME280;9393;42.158;24.748;2023-04-16T14:30:14;98801.66;;;23.15;53.86
18527;BME280;9393;42.158;24.748;2023-04-16T14:33:17;98801.25;;;22.50;52.63
18527;BME280;9393;42.158;24.748;2023-04-16T14:36:22;98803.41;;;22.53;51.99
18527;BME280;9393;42.158;24.748;2023-04-16T14:39:26;98803.63;;;22.23;51.96
18527;BME280;9393;42.158;24.748;2023-04-16T14:42:29;98794.66;;;22.12;51.75
18527;BME280;9393;42.158;24.748;2023-04-16T14:45:34;98807.91;;;21.89;52.06
18527;BME280;9393;42.158;24.748;2023-04-16T14:48:39;98793.50;;;22.08;51.08
18527;BME280;9393;42.158;24.748;2023-04-16T14:51:44;98791.78;;;22.02;51.04
18527;BME280;9393;42.158;24.748;2023-04-16T14:54:48;98796.03;;;21.68;51.41
18527;BME280;9393;42.158;24.748;2023-04-16T14:57:53;98806.75;;;21.62;52.02
18527;BME280;9393;42.158;24.748;2023-04-16T15:00:59;98807.91;;;21.43;52.47
18527;BME280;9393;42.158;24.748;2023-04-16T15:04:03;98815.13;;;21.12;53.93
18527;BME280;9393;42.158;24.748;2023-04-16T15:07:07;98815.69;;;21.14;54.73
18527;BME280;9393;42.158;24.748;2023-04-16T15:10:11;98816.78;;;21.37;54.53
18527;BME280;9393;42.158;24.748;2023-04-16T15:13:15;98818.47;;;21.20;55.34
18527;BME280;9393;42.158;24.748;2023-04-16T15:16:20;98814.44;;;21.29;55.66
18527;BME280;9393;42.158;24.748;2023-04-16T15:19:24;98816.94;;;21.12;56.56
18527;BME280;9393;42.158;24.748;2023-04-16T15:22:28;98818.09;;;20.86;57.68
18527;BME280;9393;42.158;24.748;2023-04-16T15:25:32;98816.75;;;20.95;57.92
18527;BME280;9393;42.158;24.748;2023-04-16T15:28:36;98820.88;;;20.91;58.61
18527;BME280;9393;42.158;24.748;2023-04-16T15:31:41;98826.84;;;20.87;59.04
18527;BME280;9393;42.158;24.748;2023-04-16T15:34:45;98825.13;;;20.81;58.89
18527;BME280;9393;42.158;24.748;2023-04-16T15:37:49;98828.84;;;20.61;59.71
18527;BME280;9393;42.158;24.748;2023-04-16T15:40:54;98818.34;;;20.37;60.83
18527;BME280;9393;42.158;24.748;2023-04-16T15:44:00;98821.44;;;20.34;61.47
18527;BME280;9393;42.158;24.748;2023-04-16T15:47:05;98813.41;;;20.40;61.42
18527;BME280;9393;42.158;24.748;2023-04-16T15:50:10;98798.69;;;20.44;61.75
18527;BME280;9393;42.158;24.748;2023-04-16T15:53:13;98813.25;;;20.35;61.97
18527;BME280;9393;42.158;24.748;2023-04-16T15:56:18;98806.56;;;20.33;62.59
18527;BME280;9393;42.158;24.748;2023-04-16T15:59:21;98797.88;;;20.26;62.73
18527;BME280;9393;42.158;24.748;2023-04-16T16:02:27;98797.28;;;20.42;62.53
18527;BME280;9393;42.158;24.748;2023-04-16T16:05:32;98796.47;;;20.41;62.30
18527;BME280;9393;42.158;24.748;2023-04-16T16:08:35;98792.44;;;20.39;61.58
18527;BME280;9393;42.158;24.748;2023-04-16T16:11:39;98794.28;;;20.20;61.76
18527;BME280;9393;42.158;24.748;2023-04-16T16:14:43;98793.03;;;20.23;61.51
18527;BME280;9393;42.158;24.748;2023-04-16T16:17:48;98798.91;;;20.06;61.95
18527;BME280;9393;42.158;24.748;2023-04-16T16:20:55;98799.25;;;20.10;61.51